Time;durP1;ratioP1;P1;durP2;ratioP2;P2;SDS_P1;SDS_P2;PMS_P1;PMS_P2;Temp;Humidity;BMP_temperature;BMP_pressure;BME280_temperature;BME280_humidity;BME280_pressure;Samples;Min_cycle;Max_cycle;Signal;HPM_P1;HPM_P2
2022/07/31 00:01:13;;;;;;;14.57;13.10;;;18.90;99.90;;;;;;5064258;28;20552;-74
2022/07/31 00:04:01;;;;;;;13.77;12.43;;;18.80;99.90;;;;;;5066828;28;20503;-74
2022/07/31 00:06:51;;;;;;;18.07;13.20;;;18.80;99.90;;;;;;5070120;28;20475;-74
2022/07/31 00:09:39;;;;;;;14.33;12.50;;;18.70;99.90;;;;;;5069724;28;20441;-74
2022/07/31 00:12:41;;;;;;;14.03;12.73;;;18.70;99.90;;;;;;5065263;28;20476;-74
2022/07/31 00:15:30;;;;;;;15.13;13.73;;;18.70;99.90;;;;;;5071110;28;20466;-73
2022/07/31 00:18:18;;;;;;;14.53;13.23;;;18.70;99.90;;;;;;5066420;28;20485;-73
2022/07/31 00:21:06;;;;;;;15.60;14.10;;;18.70;99.90;;;;;;5059533;28;20553;-73
2022/07/31 00:23:56;;;;;;;14.57;13.20;;;18.60;99.90;;;;;;5065463;28;20488;-73
2022/07/31 00:26:44;;;;;;;14.77;13.37;;;18.60;99.90;;;;;;5062271;28;20833;-73
2022/07/31 00:29:32;;;;;;;14.53;13.13;;;18.60;99.90;;;;;;5061905;28;20454;-74
2022/07/31 00:32:20;;;;;;;13.67;12.27;;;18.50;99.90;;;;;;5067420;28;20973;-73
2022/07/31 00:35:09;;;;;;;13.97;12.57;;;18.50;99.90;;;;;;5064323;28;20473;-73
2022/07/31 00:37:59;;;;;;;14.63;13.37;;;18.50;99.90;;;;;;5065966;28;20456;-73
2022/07/31 00:41:10;;;;;;;13.50;12.40;;;18.40;99.90;;;;;;5064817;28;21142;-73
2022/07/31 00:43:58;;;;;;;16.97;13.57;;;18.40;99.90;;;;;;5067195;28;20482;-73
2022/07/31 00:46:47;;;;;;;14.43;12.57;;;18.40;99.90;;;;;;5064708;28;20451;-73
2022/07/31 00:49:36;;;;;;;12.90;11.80;;;18.40;99.90;;;;;;5060256;28;20458;-73
2022/07/31 00:52:25;;;;;;;12.50;11.40;;;18.40;99.90;;;;;;5064947;28;20497;-73
2022/07/31 00:55:13;;;;;;;12.67;11.40;;;18.40;99.90;;;;;;5064552;28;20582;-73
2022/07/31 00:58:03;;;;;;;12.50;11.50;;;18.30;99.90;;;;;;5066231;28;20565;-73
2022/07/31 01:00:51;;;;;;;13.70;11.70;;;18.30;99.90;;;;;;5069889;28;20458;-73
2022/07/31 01:03:39;;;;;;;13.90;12.60;;;18.30;99.90;;;;;;5067385;28;20470;-73
2022/07/31 01:06:28;;;;;;;14.07;12.70;;;18.30;99.90;;;;;;5064872;28;21062;-73
2022/07/31 01:09:16;;;;;;;13.80;12.53;;;18.20;99.90;;;;;;5063082;28;20587;-73
2022/07/31 01:12:12;;;;;;;13.40;12.00;;;18.20;99.90;;;;;;5060101;28;20484;-73
2022/07/31 01:15:06;;;;;;;13.30;12.10;;;18.20;99.90;;;;;;5066607;28;20441;-72
2022/07/31 01:17:56;;;;;;;13.67;12.43;;;18.20;99.90;;;;;;5067235;28;20870;-72
2022/07/31 01:20:49;;;;;;;13.67;12.47;;;18.20;99.90;;;;;;5065217;28;20993;-73
2022/07/31 01:23:50;;;;;;;13.80;12.60;;;18.20;99.90;;;;;;5065566;28;20522;-73
2022/07/31 01:26:49;;;;;;;12.37;11.17;;;18.20;99.90;;;;;;5062769;28;20458;-73
2022/07/31 01:29:45;;;;;;;14.50;13.00;;;18.20;99.90;;;;;;5059367;28;20511;-73
2022/07/31 01:32:37;;;;;;;14.47;13.07;;;18.20;99.90;;;;;;5059898;28;21081;-73
2022/07/31 01:35:28;;;;;;;14.23;12.83;;;18.20;99.90;;;;;;5060676;28;21072;-73
2022/07/31 01:38:21;;;;;;;13.60;12.50;;;18.10;99.90;;;;;;5062794;28;20472;-73
2022/07/31 01:41:13;;;;;;;12.93;11.73;;;18.10;99.90;;;;;;5061342;28;20537;-73
2022/07/31 01:44:04;;;;;;;13.13;11.77;;;18.10;99.90;;;;;;5064839;28;20572;-73
2022/07/31 01:46:57;;;;;;;12.27;11.10;;;18.10;99.90;;;;;;5060731;28;20569;-73
2022/07/31 01:49:47;;;;;;;12.80;11.70;;;18.10;99.90;;;;;;5069027;28;24040;-73
2022/07/31 01:52:36;;;;;;;13.23;11.83;;;18.00;99.90;;;;;;5096552;22;20890;-70
2022/07/31 01:55:25;;;;;;;13.00;11.90;;;18.00;99.90;;;;;;5122674;27;20530;-71
2022/07/31 01:58:17;;;;;;;13.17;11.87;;;18.00;99.90;;;;;;5123938;27;20466;-71
2022/07/31 02:01:08;;;;;;;12.83;11.60;;;18.00;99.90;;;;;;5120002;27;20977;-69
2022/07/31 02:04:01;;;;;;;13.40;12.00;;;18.00;99.90;;;;;;5105923;27;20474;-70
2022/07/31 02:06:50;;;;;;;13.37;11.90;;;17.90;99.90;;;;;;5113324;27;20473;-69
2022/07/31 02:09:39;;;;;;;12.90;11.60;;;17.90;99.90;;;;;;5105770;28;21004;-71
2022/07/31 02:12:47;;;;;;;14.07;12.50;;;17.90;99.90;;;;;;5103172;28;20850;-70
2022/07/31 02:15:36;;;;;;;12.43;11.33;;;17.80;99.90;;;;;;5093393;28;20557;-70
2022/07/31 02:18:25;;;;;;;12.10;11.00;;;17.80;99.90;;;;;;5105550;28;20536;-72
2022/07/31 02:21:15;;;;;;;12.73;11.37;;;17.80;99.90;;;;;;5098797;28;20606;-72
2022/07/31 02:24:03;;;;;;;13.50;12.10;;;17.70;99.90;;;;;;5098761;27;20484;-71
2022/07/31 02:26:53;;;;;;;13.47;12.07;;;17.70;99.90;;;;;;5095586;28;20494;-71
2022/07/31 02:29:43;;;;;;;12.27;11.20;;;17.70;99.90;;;;;;5098110;28;20484;-73
2022/07/31 02:32:33;;;;;;;14.00;12.70;;;17.70;99.90;;;;;;5097841;28;20480;-72
2022/07/31 02:35:22;;;;;;;12.47;11.37;;;17.60;99.90;;;;;;5099029;28;20498;-72
2022/07/31 02:38:14;;;;;;;13.60;12.30;;;17.60;99.90;;;;;;5094840;28;20906;-72
2022/07/31 02:41:12;;;;;;;13.20;12.03;;;17.50;99.90;;;;;;5100186;27;20452;-71
2022/07/31 02:44:01;;;;;;;13.60;12.27;;;17.50;99.90;;;;;;5096870;28;20961;-71
2022/07/31 02:46:49;;;;;;;13.80;12.60;;;17.50;99.90;;;;;;5099087;27;20464;-72
2022/07/31 02:49:38;;;;;;;13.50;12.20;;;17.40;99.90;;;;;;5103168;28;20455;-72
2022/07/31 02:52:26;;;;;;;13.17;12.07;;;17.40;99.90;;;;;;5091203;28;20551;-72
2022/07/31 02:55:17;;;;;;;13.90;12.50;;;17.40;99.90;;;;;;5095796;28;20593;-71
2022/07/31 02:58:05;;;;;;;14.60;13.10;;;17.40;99.90;;;;;;5103669;28;20449;-72
2022/07/31 03:01:05;;;;;;;16.00;12.33;;;17.30;99.90;;;;;;5101332;28;20567;-72
2022/07/31 03:03:53;;;;;;;14.20;13.10;;;17.30;99.90;;;;;;5103651;28;20495;-72
2022/07/31 03:06:42;;;;;;;14.13;12.40;;;17.30;99.90;;;;;;5099915;28;20885;-71
2022/07/31 03:09:30;;;;;;;14.00;12.80;;;17.20;99.90;;;;;;5100803;28;20460;-71
2022/07/31 03:12:20;;;;;;;14.20;12.80;;;17.20;99.90;;;;;;5096073;28;21510;-72
2022/07/31 03:15:11;;;;;;;13.97;12.77;;;17.20;99.90;;;;;;5101470;28;20478;-71
2022/07/31 03:18:00;;;;;;;14.30;13.20;;;17.10;99.90;;;;;;5101888;28;20574;-70
2022/07/31 03:20:56;;;;;;;13.87;12.60;;;17.10;99.90;;;;;;5102165;28;20444;-71
2022/07/31 03:23:47;;;;;;;13.07;11.97;;;17.10;99.90;;;;;;5101117;28;20603;-71
2022/07/31 03:26:35;;;;;;;14.77;13.33;;;17.00;99.90;;;;;;5097944;28;20463;-71
2022/07/31 03:29:25;;;;;;;14.40;13.17;;;17.00;99.90;;;;;;5100467;28;20974;-71
2022/07/31 03:32:34;;;;;;;13.47;12.33;;;17.00;99.90;;;;;;5105341;28;20474;-71
2022/07/31 03:35:23;;;;;;;12.73;11.77;;;16.90;99.90;;;;;;5102324;28;21042;-71
2022/07/31 03:38:11;;;;;;;13.80;12.57;;;16.90;99.90;;;;;;5100650;28;20456;-71
2022/07/31 03:41:20;;;;;;;13.33;12.23;;;16.90;99.90;;;;;;5098992;28;20446;-71
2022/07/31 03:44:10;;;;;;;12.80;11.70;;;16.80;99.90;;;;;;5101162;28;20685;-71
2022/07/31 03:47:00;;;;;;;14.27;12.90;;;16.80;99.90;;;;;;5098287;28;20600;-71
2022/07/31 03:49:49;;;;;;;13.47;12.27;;;16.80;99.90;;;;;;5095997;28;20453;-70
2022/07/31 03:52:38;;;;;;;13.10;11.80;;;16.80;99.90;;;;;;5093730;28;20985;-71
2022/07/31 03:55:27;;;;;;;13.00;12.00;;;16.80;99.90;;;;;;5096134;28;21097;-71
2022/07/31 03:58:17;;;;;;;13.07;11.87;;;16.70;99.90;;;;;;5106161;28;20526;-72
2022/07/31 04:01:06;;;;;;;12.87;11.77;;;16.70;99.90;;;;;;5105011;28;20456;-71
2022/07/31 04:04:00;;;;;;;13.20;11.97;;;16.70;99.90;;;;;;5100831;27;20639;-71
2022/07/31 04:06:48;;;;;;;11.83;10.83;;;16.70;99.90;;;;;;5103787;28;20626;-71
2022/07/31 04:09:37;;;;;;;12.27;11.37;;;16.60;99.90;;;;;;5105703;28;20547;-72
2022/07/31 04:12:25;;;;;;;12.93;11.83;;;16.60;99.90;;;;;;5103978;27;20486;-71
2022/07/31 04:15:13;;;;;;;12.67;11.57;;;16.60;99.90;;;;;;5104570;28;20854;-71
2022/07/31 04:18:02;;;;;;;12.70;11.70;;;16.60;99.90;;;;;;5106881;28;20502;-71
2022/07/31 04:20:51;;;;;;;13.13;12.03;;;16.60;99.90;;;;;;5103023;28;21003;-72
2022/07/31 04:23:40;;;;;;;11.90;10.90;;;16.60;99.90;;;;;;5103326;28;20479;-72
2022/07/31 04:26:36;;;;;;;12.37;11.33;;;16.60;99.90;;;;;;5104537;28;21251;-72
2022/07/31 04:29:27;;;;;;;12.00;11.00;;;16.60;99.90;;;;;;5103630;28;20532;-72
2022/07/31 04:32:15;;;;;;;11.93;10.93;;;16.50;99.90;;;;;;5100803;28;20475;-71
2022/07/31 04:35:04;;;;;;;13.23;12.17;;;16.50;99.90;;;;;;5095382;28;20526;-72
2022/07/31 04:37:54;;;;;;;12.43;11.33;;;16.50;99.90;;;;;;5104318;28;20444;-72
2022/07/31 04:40:42;;;;;;;12.87;11.87;;;16.60;99.90;;;;;;5102842;28;20559;-72
2022/07/31 04:43:30;;;;;;;13.03;12.03;;;16.60;99.90;;;;;;5100290;28;20476;-71
2022/07/31 04:46:20;;;;;;;13.07;11.97;;;16.60;99.90;;;;;;5104793;27;20883;-72
2022/07/31 04:49:10;;;;;;;14.17;12.87;;;16.60;99.90;;;;;;5109191;28;20967;-71
2022/07/31 04:51:58;;;;;;;15.50;14.20;;;16.60;99.90;;;;;;5106093;28;20984;-72
2022/07/31 04:54:48;;;;;;;12.90;11.60;;;16.70;99.90;;;;;;5101440;28;20996;-72
2022/07/31 04:57:36;;;;;;;15.53;14.27;;;16.70;99.90;;;;;;5103482;28;20441;-72
2022/07/31 05:00:25;;;;;;;16.90;15.27;;;16.80;99.90;;;;;;5101609;28;20925;-72
2022/07/31 05:03:13;;;;;;;14.73;13.47;;;16.80;99.90;;;;;;5105954;27;20554;-71
2022/07/31 05:06:09;;;;;;;15.47;13.97;;;16.90;99.90;;;;;;5097964;28;20460;-72
2022/07/31 05:08:58;;;;;;;19.03;17.23;;;16.90;99.90;;;;;;5105572;28;20456;-72
2022/07/31 05:11:48;;;;;;;16.83;15.30;;;16.90;99.90;;;;;;5103909;28;20514;-72
2022/07/31 05:14:37;;;;;;;16.90;15.20;;;17.00;99.90;;;;;;5099604;28;20506;-72
2022/07/31 05:17:25;;;;;;;16.40;14.97;;;17.00;99.90;;;;;;5103248;28;20436;-72
2022/07/31 05:20:13;;;;;;;17.83;16.03;;;17.00;99.90;;;;;;5107104;27;20463;-72
2022/07/31 05:23:01;;;;;;;19.20;17.30;;;17.10;99.90;;;;;;5099418;28;20481;-71
2022/07/31 05:25:55;;;;;;;16.40;14.90;;;17.10;99.90;;;;;;5094422;28;20998;-71
2022/07/31 05:28:45;;;;;;;18.77;17.07;;;17.10;99.90;;;;;;5100001;28;20452;-71
2022/07/31 05:31:34;;;;;;;17.07;15.40;;;17.10;99.90;;;;;;5103117;28;21216;-72
2022/07/31 05:34:22;;;;;;;17.13;15.63;;;17.10;99.90;;;;;;5105416;28;20482;-72
2022/07/31 05:37:10;;;;;;;17.47;15.73;;;17.10;99.90;;;;;;5103782;27;20493;-72
2022/07/31 05:39:59;;;;;;;15.70;14.20;;;17.20;99.90;;;;;;5095516;28;20484;-71
2022/07/31 05:42:47;;;;;;;18.00;16.40;;;17.20;99.90;;;;;;5103328;28;20468;-72
2022/07/31 05:45:37;;;;;;;16.07;14.47;;;17.20;99.90;;;;;;5098873;28;20506;-72
2022/07/31 05:48:25;;;;;;;16.43;15.03;;;17.30;99.90;;;;;;5104627;28;20477;-71
2022/07/31 05:51:14;;;;;;;16.93;15.33;;;17.30;99.90;;;;;;5103033;28;20452;-71
2022/07/31 05:54:03;;;;;;;19.30;17.50;;;17.30;99.90;;;;;;5101873;27;21327;-70
2022/07/31 05:56:51;;;;;;;18.70;16.90;;;17.40;99.90;;;;;;5101548;28;20963;-71
2022/07/31 05:59:40;;;;;;;20.27;17.50;;;17.50;99.90;;;;;;5099193;28;20545;-71
2022/07/31 06:02:29;;;;;;;18.00;16.30;;;17.50;99.90;;;;;;5088574;28;20467;-71
2022/07/31 06:05:19;;;;;;;15.23;13.70;;;17.60;99.90;;;;;;5080002;27;20535;-71
2022/07/31 06:08:08;;;;;;;13.30;12.07;;;17.60;99.90;;;;;;5090411;28;20475;-71
2022/07/31 06:10:57;;;;;;;17.87;16.13;;;17.80;99.90;;;;;;5100070;27;20946;-71
2022/07/31 06:13:45;;;;;;;15.10;13.77;;;17.80;99.90;;;;;;5103657;28;20555;-71
2022/07/31 06:16:36;;;;;;;16.20;14.83;;;17.90;99.90;;;;;;5105144;28;20944;-71
2022/07/31 06:19:26;;;;;;;16.57;14.87;;;17.90;99.90;;;;;;5098036;28;20456;-72
2022/07/31 06:22:14;;;;;;;16.20;14.80;;;18.00;99.90;;;;;;5102231;27;20547;-72
2022/07/31 06:25:03;;;;;;;14.03;12.63;;;18.00;99.90;;;;;;5092969;28;20545;-71
2022/07/31 06:27:52;;;;;;;13.90;12.60;;;18.10;99.90;;;;;;5105468;27;20571;-71
2022/07/31 06:30:48;;;;;;;16.33;12.77;;;18.10;99.90;;;;;;5099519;28;20462;-71
2022/07/31 06:33:36;;;;;;;13.13;11.83;;;18.20;99.90;;;;;;5104899;28;20548;-71
2022/07/31 06:36:26;;;;;;;12.10;10.80;;;18.20;99.90;;;;;;5101033;27;20440;-71
2022/07/31 06:39:14;;;;;;;11.20;10.23;;;18.30;99.90;;;;;;5107552;28;20497;-71
2022/07/31 06:42:03;;;;;;;10.70;9.60;;;18.40;99.90;;;;;;5099551;28;20967;-72
2022/07/31 06:44:52;;;;;;;8.90;8.00;;;18.40;99.90;;;;;;5101839;27;20436;-71
2022/07/31 06:47:41;;;;;;;6.43;5.93;;;18.40;99.90;;;;;;5095464;28;20600;-71
2022/07/31 06:50:29;;;;;;;6.80;6.20;;;18.50;99.90;;;;;;5096911;28;20449;-72
2022/07/31 06:53:19;;;;;;;8.50;7.67;;;18.50;99.90;;;;;;5109481;28;20525;-72
2022/07/31 06:56:07;;;;;;;10.23;8.53;;;18.60;99.90;;;;;;5103540;28;20457;-71
2022/07/31 06:58:55;;;;;;;8.83;8.00;;;18.60;99.90;;;;;;5107027;28;21042;-71
2022/07/31 07:01:43;;;;;;;8.73;7.93;;;18.70;99.90;;;;;;5109332;28;21003;-71
2022/07/31 07:04:34;;;;;;;8.07;7.40;;;18.70;99.90;;;;;;5104405;28;21307;-72
2022/07/31 07:07:42;;;;;;;8.03;7.23;;;18.80;99.90;;;;;;5104529;28;20459;-70
2022/07/31 07:10:32;;;;;;;9.20;8.40;;;18.90;99.90;;;;;;5100761;28;20534;-71
2022/07/31 07:13:20;;;;;;;8.30;7.70;;;18.90;99.90;;;;;;5100166;28;20465;-71
2022/07/31 07:16:10;;;;;;;7.80;6.90;;;18.90;99.90;;;;;;5101374;28;20467;-70
2022/07/31 07:18:59;;;;;;;8.03;7.23;;;19.00;99.90;;;;;;5102511;28;20548;-72
2022/07/31 07:21:47;;;;;;;9.60;6.30;;;19.00;99.90;;;;;;5104834;28;21091;-71
2022/07/31 07:24:36;;;;;;;7.90;7.20;;;19.10;99.90;;;;;;5097459;28;20991;-73
2022/07/31 07:27:25;;;;;;;8.63;6.87;;;19.10;99.90;;;;;;5099960;28;20471;-73
2022/07/31 07:30:13;;;;;;;7.50;6.90;;;19.20;99.90;;;;;;5106913;28;20552;-71
2022/07/31 07:33:04;;;;;;;8.60;7.90;;;19.20;99.90;;;;;;5104151;28;20570;-71
2022/07/31 07:35:52;;;;;;;9.47;8.57;;;19.30;99.90;;;;;;5106727;28;20440;-72
2022/07/31 07:38:40;;;;;;;8.70;8.03;;;19.30;99.90;;;;;;5103715;28;20959;-71
2022/07/31 07:41:28;;;;;;;8.90;8.10;;;19.40;99.90;;;;;;5101563;27;20452;-71
2022/07/31 07:44:18;;;;;;;9.70;8.80;;;19.40;99.90;;;;;;5109081;28;20558;-72
2022/07/31 07:47:06;;;;;;;8.37;7.67;;;19.50;99.90;;;;;;5107838;27;20583;-72
2022/07/31 07:49:55;;;;;;;7.37;6.67;;;19.50;99.90;;;;;;5099335;28;20952;-72
2022/07/31 07:52:43;;;;;;;7.70;7.10;;;19.60;99.90;;;;;;5125521;22;20541;-74
2022/07/31 07:55:31;;;;;;;9.07;8.27;;;19.60;99.90;;;;;;5061649;28;21075;-74
2022/07/31 07:58:24;;;;;;;7.20;6.50;;;19.70;99.90;;;;;;5068216;28;20449;-74
2022/07/31 08:01:14;;;;;;;7.03;6.43;;;19.70;99.90;;;;;;5066341;28;20824;-74
2022/07/31 08:04:03;;;;;;;8.00;5.53;;;19.80;99.90;;;;;;5053194;28;20519;-74
2022/07/31 08:06:51;;;;;;;6.13;5.53;;;19.80;99.90;;;;;;5040711;28;20565;-74
2022/07/31 08:09:39;;;;;;;5.20;4.80;;;19.90;99.90;;;;;;5040662;28;20514;-74
2022/07/31 08:12:28;;;;;;;4.77;4.47;;;19.90;99.90;;;;;;5041911;28;20980;-74
2022/07/31 08:15:16;;;;;;;7.00;6.30;;;20.00;99.90;;;;;;5041946;28;20548;-74
2022/07/31 08:18:06;;;;;;;8.23;7.30;;;20.00;99.90;;;;;;5045992;28;20601;-74
2022/07/31 08:20:55;;;;;;;8.37;7.20;;;20.10;99.90;;;;;;5052497;28;20501;-74
2022/07/31 08:23:43;;;;;;;7.70;7.10;;;20.10;99.90;;;;;;5044424;28;20492;-74
2022/07/31 08:29:35;;;;;;;9.97;7.17;;;20.20;99.90;;;;;;5046645;28;20466;-74
2022/07/31 08:32:25;;;;;;;6.20;5.80;;;20.20;99.90;;;;;;5043889;28;20450;-74
2022/07/31 08:35:15;;;;;;;7.10;6.37;;;20.20;99.90;;;;;;5051979;28;20451;-74
2022/07/31 08:38:03;;;;;;;7.70;6.90;;;20.30;99.90;;;;;;5047763;28;20947;-74
2022/07/31 08:40:52;;;;;;;7.03;6.43;;;20.30;99.90;;;;;;5045372;28;20496;-74
2022/07/31 08:43:40;;;;;;;8.43;7.00;;;20.40;99.90;;;;;;5038602;28;20458;-75
2022/07/31 08:46:49;;;;;;;6.43;5.83;;;20.50;99.90;;;;;;5041077;28;20442;-74
2022/07/31 08:49:40;;;;;;;5.90;5.30;;;20.50;99.90;;;;;;5044433;28;20583;-74
2022/07/31 08:52:31;;;;;;;4.80;4.37;;;20.60;99.90;;;;;;5040963;28;20542;-74
2022/07/31 08:55:21;;;;;;;7.50;5.17;;;20.60;99.90;;;;;;5041936;28;20451;-74
2022/07/31 08:58:32;;;;;;;6.77;5.97;;;20.70;99.90;;;;;;5041209;28;20535;-74
2022/07/31 09:01:27;;;;;;;5.80;5.30;;;20.80;99.90;;;;;;5049475;28;21020;-74
2022/07/31 09:04:15;;;;;;;5.70;5.20;;;20.80;99.90;;;;;;5047086;28;20520;-74
2022/07/31 09:07:05;;;;;;;5.57;5.00;;;20.90;99.90;;;;;;5043216;28;20545;-74
2022/07/31 09:09:55;;;;;;;7.13;5.20;;;20.90;99.90;;;;;;5034486;28;20979;-74
2022/07/31 09:12:43;;;;;;;5.93;5.33;;;20.90;99.90;;;;;;5045309;28;20455;-74
2022/07/31 09:15:33;;;;;;;6.03;5.53;;;20.90;99.90;;;;;;5038947;28;21350;-74
2022/07/31 09:18:23;;;;;;;6.60;5.90;;;20.90;99.90;;;;;;5047985;28;20442;-74
2022/07/31 09:21:11;;;;;;;5.27;4.77;;;21.00;99.90;;;;;;5033897;28;20467;-74
2022/07/31 09:23:59;;;;;;;6.13;5.53;;;21.00;99.90;;;;;;5046582;28;20968;-74
2022/07/31 09:27:00;;;;;;;5.10;4.67;;;21.00;99.90;;;;;;5037566;28;20541;-74
2022/07/31 09:29:56;;;;;;;4.67;4.27;;;21.00;99.90;;;;;;5046846;28;20454;-74
2022/07/31 09:32:44;;;;;;;6.50;4.60;;;21.10;99.90;;;;;;5041025;28;20483;-75
2022/07/31 09:35:38;;;;;;;4.83;4.40;;;21.10;99.90;;;;;;5047075;28;20450;-74
2022/07/31 09:38:34;;;;;;;5.27;4.77;;;21.20;99.90;;;;;;5037392;28;20447;-74
2022/07/31 09:41:24;;;;;;;4.20;3.90;;;21.20;99.90;;;;;;5044617;28;20929;-74
2022/07/31 09:44:38;;;;;;;4.87;4.47;;;21.30;99.90;;;;;;5047343;28;20458;-74
2022/07/31 09:47:28;;;;;;;4.40;4.10;;;21.30;99.90;;;;;;5046351;28;20826;-74
2022/07/31 09:50:23;;;;;;;4.80;4.30;;;21.40;99.90;;;;;;5044047;28;20526;-74
2022/07/31 09:53:11;;;;;;;4.83;4.43;;;21.50;99.90;;;;;;5049318;28;20869;-74
2022/07/31 09:56:00;;;;;;;4.77;4.27;;;21.50;99.90;;;;;;5038269;28;20751;-74
2022/07/31 09:58:48;;;;;;;6.53;4.33;;;21.60;99.90;;;;;;5043485;28;20933;-74
2022/07/31 10:01:40;;;;;;;4.57;4.27;;;21.70;99.90;;;;;;5046440;28;20443;-74
2022/07/31 10:04:28;;;;;;;3.80;3.60;;;21.70;99.90;;;;;;5038700;28;20481;-74
2022/07/31 10:07:17;;;;;;;4.57;4.03;;;21.80;99.90;;;;;;5038815;28;20899;-74
2022/07/31 10:10:23;;;;;;;4.37;4.07;;;21.90;99.90;;;;;;5045133;28;21006;-74
2022/07/31 10:13:15;;;;;;;5.57;4.20;;;22.00;99.90;;;;;;5042098;28;20896;-74
2022/07/31 10:16:04;;;;;;;4.10;3.77;;;22.20;99.90;;;;;;5046107;28;20462;-74
2022/07/31 10:18:59;;;;;;;4.20;3.80;;;22.20;99.90;;;;;;5040585;28;20451;-74
2022/07/31 10:21:54;;;;;;;4.83;4.30;;;22.30;99.90;;;;;;5045842;28;20537;-74
2022/07/31 10:24:46;;;;;;;4.70;4.00;;;22.40;99.90;;;;;;5036534;28;20459;-74
2022/07/31 10:27:35;;;;;;;4.50;3.50;;;22.50;99.90;;;;;;5046520;28;20490;-74
2022/07/31 10:30:26;;;;;;;4.10;3.73;;;22.60;99.90;;;;;;5039570;28;20458;-74
2022/07/31 10:33:16;;;;;;;4.67;4.33;;;22.60;99.90;;;;;;5034155;28;20476;-75
2022/07/31 10:36:32;;;;;;;3.90;3.60;;;22.70;99.90;;;;;;5053574;28;20468;-74
2022/07/31 10:39:27;;;;;;;4.10;3.70;;;22.80;99.90;;;;;;5041962;28;20814;-74
2022/07/31 10:42:31;;;;;;;3.50;3.30;;;22.80;99.90;;;;;;5037551;28;20451;-74
2022/07/31 10:45:19;;;;;;;3.20;3.00;;;22.90;99.90;;;;;;5038385;28;20977;-76
2022/07/31 10:48:11;;;;;;;3.47;3.17;;;23.00;99.90;;;;;;5044729;28;20444;-74
2022/07/31 10:51:04;;;;;;;3.27;3.07;;;23.00;99.90;;;;;;5039645;28;20946;-74
2022/07/31 10:53:59;;;;;;;3.70;3.40;;;23.20;99.90;;;;;;5043432;28;20595;-74
2022/07/31 10:56:48;;;;;;;4.67;3.20;;;23.30;99.90;;;;;;5042918;28;20455;-74
2022/07/31 10:59:36;;;;;;;4.30;3.80;;;23.40;99.90;;;;;;5042313;28;20534;-74
2022/07/31 11:02:32;;;;;;;3.77;3.47;;;23.50;99.90;;;;;;5046636;28;21052;-74
2022/07/31 11:05:22;;;;;;;3.23;2.97;;;23.60;99.90;;;;;;5048176;28;20500;-74
2022/07/31 11:08:10;;;;;;;3.87;3.37;;;23.70;99.90;;;;;;5038517;28;20546;-74
2022/07/31 11:11:00;;;;;;;6.07;3.70;;;23.80;99.90;;;;;;5046538;28;20588;-73
2022/07/31 11:13:54;;;;;;;3.70;3.40;;;23.90;99.90;;;;;;5043945;28;20921;-73
2022/07/31 11:16:50;;;;;;;3.40;3.10;;;24.00;99.90;;;;;;5050881;28;21207;-73
2022/07/31 11:19:39;;;;;;;3.07;2.87;;;24.10;99.90;;;;;;5037077;28;20459;-73
2022/07/31 11:22:28;;;;;;;3.70;3.47;;;24.20;99.90;;;;;;5046282;28;20474;-73
2022/07/31 11:25:20;;;;;;;3.83;3.53;;;24.20;99.90;;;;;;5046879;28;20542;-74
2022/07/31 11:28:17;;;;;;;3.47;3.20;;;24.20;99.90;;;;;;5048508;28;20451;-74
2022/07/31 11:31:08;;;;;;;3.80;3.50;;;24.30;99.90;;;;;;5043745;28;20466;-73
2022/07/31 11:33:56;;;;;;;4.53;3.47;;;24.40;99.90;;;;;;5051775;28;20898;-74
2022/07/31 11:36:44;;;;;;;3.23;3.00;;;24.40;99.90;;;;;;5048757;28;20453;-73
2022/07/31 11:39:40;;;;;;;3.17;2.90;;;24.50;99.90;;;;;;5045416;28;20980;-74
2022/07/31 11:42:43;;;;;;;3.27;3.07;;;24.60;99.90;;;;;;5035124;28;20463;-73
2022/07/31 11:45:33;;;;;;;3.33;3.03;;;24.80;99.90;;;;;;5041212;28;20616;-74
2022/07/31 11:48:23;;;;;;;4.07;3.40;;;24.90;99.90;;;;;;5041262;28;20469;-74
2022/07/31 11:51:18;;;;;;;4.83;3.97;;;25.00;99.90;;;;;;5045238;28;20450;-74
2022/07/31 11:54:06;;;;;;;4.03;3.60;;;25.10;99.90;;;;;;5037274;28;20475;-73
2022/07/31 11:56:55;;;;;;;3.60;3.30;;;25.20;99.90;;;;;;5046162;28;20544;-74
2022/07/31 11:59:44;;;;;;;3.40;3.20;;;25.20;99.90;;;;;;5041705;28;20560;-73
2022/07/31 12:02:42;;;;;;;3.23;2.93;;;25.30;99.90;;;;;;5041940;28;20566;-73
2022/07/31 12:05:30;;;;;;;3.60;3.40;;;25.40;99.90;;;;;;5043215;28;20848;-73
2022/07/31 12:08:27;;;;;;;3.63;3.33;;;25.50;99.90;;;;;;5047936;28;20864;-74
2022/07/31 12:11:18;;;;;;;3.70;3.40;;;25.60;99.90;;;;;;5040399;28;20439;-73
2022/07/31 12:14:06;;;;;;;3.73;3.43;;;25.60;99.90;;;;;;5040782;28;20576;-73
2022/07/31 12:16:55;;;;;;;3.70;3.40;;;25.70;99.90;;;;;;5037537;28;20538;-74
2022/07/31 12:19:44;;;;;;;3.90;3.60;;;25.70;99.90;;;;;;5047008;28;20545;-73
2022/07/31 12:22:33;;;;;;;3.60;3.30;;;25.70;99.90;;;;;;5040685;28;20878;-74
2022/07/31 12:25:21;;;;;;;4.10;3.20;;;25.80;99.90;;;;;;5044857;28;20931;-73
2022/07/31 12:28:09;;;;;;;4.87;3.30;;;25.90;99.90;;;;;;5039705;28;20452;-73
2022/07/31 12:30:59;;;;;;;6.20;3.20;;;25.90;99.90;;;;;;5047439;28;20508;-74
2022/07/31 12:33:47;;;;;;;3.30;3.10;;;26.00;99.90;;;;;;5040474;28;20891;-74
2022/07/31 12:36:37;;;;;;;3.60;3.10;;;26.10;99.90;;;;;;5042292;28;20550;-74
2022/07/31 12:39:25;;;;;;;3.60;3.37;;;26.10;99.90;;;;;;5038404;28;20529;-74
2022/07/31 12:42:35;;;;;;;3.50;3.20;;;26.00;99.90;;;;;;5044027;28;20454;-73
2022/07/31 12:45:31;;;;;;;4.20;3.30;;;26.00;99.90;;;;;;5044742;28;20538;-74
2022/07/31 12:48:19;;;;;;;4.73;3.07;;;25.90;99.90;;;;;;5045244;28;20447;-73
2022/07/31 12:51:08;;;;;;;3.83;3.63;;;25.90;99.90;;;;;;5044826;28;20582;-74
2022/07/31 12:53:57;;;;;;;5.10;3.60;;;25.90;99.90;;;;;;5044621;28;20470;-73
2022/07/31 12:56:46;;;;;;;3.40;3.20;;;25.80;99.90;;;;;;5048086;28;21154;-74
2022/07/31 12:59:35;;;;;;;3.30;3.10;;;25.80;99.90;;;;;;5053759;28;20450;-73
2022/07/31 13:02:23;;;;;;;3.80;3.50;;;25.80;99.90;;;;;;5048252;28;20455;-73
2022/07/31 13:05:12;;;;;;;3.63;3.33;;;25.80;99.90;;;;;;5043862;28;20569;-73
2022/07/31 13:08:00;;;;;;;3.73;3.53;;;25.80;99.90;;;;;;5047541;28;20455;-73
2022/07/31 13:10:50;;;;;;;3.53;3.33;;;25.70;99.90;;;;;;5045970;28;20535;-74
2022/07/31 13:13:38;;;;;;;3.87;3.57;;;25.70;99.90;;;;;;5044027;28;20554;-73
2022/07/31 13:16:26;;;;;;;3.70;3.50;;;25.60;99.90;;;;;;5039327;28;20563;-74
2022/07/31 13:19:15;;;;;;;3.90;3.50;;;25.60;99.90;;;;;;5049551;28;20813;-73
2022/07/31 13:22:03;;;;;;;3.30;3.10;;;25.60;99.90;;;;;;5037704;28;20592;-73
2022/07/31 13:24:51;;;;;;;3.67;3.47;;;25.60;99.90;;;;;;5044347;28;20467;-74
2022/07/31 13:27:41;;;;;;;3.70;3.40;;;25.50;99.90;;;;;;5046842;28;20455;-73
2022/07/31 13:30:30;;;;;;;3.77;3.50;;;25.50;99.90;;;;;;5045281;28;20582;-73
2022/07/31 13:33:18;;;;;;;4.00;3.60;;;25.50;99.90;;;;;;5039696;28;20532;-74
2022/07/31 13:36:06;;;;;;;4.00;3.60;;;25.50;99.90;;;;;;5040869;28;20440;-73
2022/07/31 13:38:55;;;;;;;4.10;3.70;;;25.40;99.90;;;;;;5050622;28;20904;-73
2022/07/31 13:41:43;;;;;;;3.97;3.60;;;25.40;99.90;;;;;;5045704;28;20526;-73
2022/07/31 13:44:33;;;;;;;3.67;3.40;;;25.40;99.90;;;;;;5045973;28;21272;-74
2022/07/31 13:47:21;;;;;;;3.77;3.47;;;25.40;99.90;;;;;;5043572;28;20556;-73
2022/07/31 13:50:09;;;;;;;3.93;3.63;;;25.40;99.90;;;;;;5047080;28;20498;-73
2022/07/31 13:52:57;;;;;;;3.87;3.57;;;25.50;99.90;;;;;;5046007;28;20478;-73
2022/07/31 13:55:46;;;;;;;4.13;3.83;;;25.50;99.90;;;;;;5090372;22;20507;-71
2022/07/31 13:58:37;;;;;;;4.53;3.60;;;25.50;99.90;;;;;;5102649;28;20432;-72
2022/07/31 14:01:27;;;;;;;4.03;3.73;;;25.50;99.90;;;;;;5109252;28;20528;-73
2022/07/31 14:04:35;;;;;;;4.43;4.03;;;25.50;99.90;;;;;;5097678;28;20465;-73
2022/07/31 14:07:26;;;;;;;4.20;3.87;;;25.50;99.90;;;;;;5092103;28;20452;-74
2022/07/31 14:10:32;;;;;;;4.00;3.60;;;25.40;99.90;;;;;;5083131;28;20476;-73
2022/07/31 14:13:22;;;;;;;3.60;3.40;;;25.40;99.90;;;;;;5093321;28;20455;-73
2022/07/31 14:16:10;;;;;;;4.83;3.97;;;25.40;99.90;;;;;;5086341;28;20817;-73
2022/07/31 14:19:00;;;;;;;4.70;4.10;;;25.40;99.90;;;;;;5096325;27;20955;-73
2022/07/31 14:21:48;;;;;;;6.20;3.80;;;25.30;99.90;;;;;;5089691;28;20501;-72
2022/07/31 14:24:44;;;;;;;4.40;4.10;;;25.30;99.90;;;;;;5082981;28;20480;-72
2022/07/31 14:27:38;;;;;;;4.17;3.97;;;25.20;99.90;;;;;;5092047;28;20450;-73
2022/07/31 14:30:27;;;;;;;4.07;3.77;;;25.20;99.90;;;;;;5077227;28;20567;-73
2022/07/31 14:33:17;;;;;;;5.40;4.03;;;25.10;99.90;;;;;;5091328;28;20461;-71
2022/07/31 14:36:07;;;;;;;4.40;4.00;;;25.10;99.90;;;;;;5085526;28;20480;-73
2022/07/31 14:38:55;;;;;;;5.00;4.07;;;25.10;99.90;;;;;;5095178;28;20462;-73
2022/07/31 14:41:44;;;;;;;5.60;4.13;;;25.00;99.90;;;;;;5088835;28;20531;-73